Terminal Aerodrome Forecast
Issued by NWS Cleveland, OH

Home | Current Version | Previous Version | Text Only | Print | Product List | Glossary Off
Versions: 1 2 3 4 5 6 7 8 9 10 11 12 13 14

000
FTUS41 KCLE 211100
TAFYNG
TAF
KYNG 211136Z 2112/2212 07005KT P6SM OVC060
     FM211500 32008KT P6SM OVC080
     FM220200 26005KT P6SM SCT070=

USA.gov is the U.S. government's official web portal to all federal, state and local government web resources and services.